sensor_id;sensor_type;location;lat;lon;timestamp;P1;durP1;ratioP1;P2;durP2;ratioP2
22922;SDS011;11627;51.322;22.816;2023-01-09T00:00:51;28.42;;;14.57;;
22922;SDS011;11627;51.322;22.816;2023-01-09T00:03:17;30.42;;;14.90;;
22922;SDS011;11627;51.322;22.816;2023-01-09T00:05:44;28.48;;;15.23;;
22922;SDS011;11627;51.322;22.816;2023-01-09T00:08:09;31.83;;;15.60;;
22922;SDS011;11627;51.322;22.816;2023-01-09T00:10:36;27.55;;;14.57;;
22922;SDS011;11627;51.322;22.816;2023-01-09T00:13:03;27.27;;;14.20;;
22922;SDS011;11627;51.322;22.816;2023-01-09T00:15:31;34.70;;;15.98;;
22922;SDS011;11627;51.322;22.816;2023-01-09T00:17:57;26.77;;;14.90;;
22922;SDS011;11627;51.322;22.816;2023-01-09T00:20:23;29.65;;;15.15;;
22922;SDS011;11627;51.322;22.816;2023-01-09T00:22:48;31.95;;;15.30;;
22922;SDS011;11627;51.322;22.816;2023-01-09T00:25:14;28.05;;;14.43;;
22922;SDS011;11627;51.322;22.816;2023-01-09T00:27:52;26.13;;;13.35;;
22922;SDS011;11627;51.322;22.816;2023-01-09T00:30:19;31.95;;;14.55;;
22922;SDS011;11627;51.322;22.816;2023-01-09T00:32:46;28.63;;;14.30;;
22922;SDS011;11627;51.322;22.816;2023-01-09T00:35:13;28.40;;;14.63;;
22922;SDS011;11627;51.322;22.816;2023-01-09T00:37:42;30.58;;;14.70;;
22922;SDS011;11627;51.322;22.816;2023-01-09T00:40:09;28.35;;;14.90;;
22922;SDS011;11627;51.322;22.816;2023-01-09T00:42:36;30.58;;;14.65;;
22922;SDS011;11627;51.322;22.816;2023-01-09T00:45:07;32.10;;;14.55;;
22922;SDS011;11627;51.322;22.816;2023-01-09T00:47:39;28.13;;;14.23;;
22922;SDS011;11627;51.322;22.816;2023-01-09T00:50:21;29.25;;;14.40;;
22922;SDS011;11627;51.322;22.816;2023-01-09T00:52:50;27.75;;;14.15;;
22922;SDS011;11627;51.322;22.816;2023-01-09T00:55:18;28.38;;;14.15;;
22922;SDS011;11627;51.322;22.816;2023-01-09T00:57:44;35.03;;;14.10;;
22922;SDS011;11627;51.322;22.816;2023-01-09T01:00:10;30.30;;;14.10;;
22922;SDS011;11627;51.322;22.816;2023-01-09T01:02:36;29.10;;;14.75;;
22922;SDS011;11627;51.322;22.816;2023-01-09T01:05:03;30.52;;;14.82;;
22922;SDS011;11627;51.322;22.816;2023-01-09T01:07:48;28.75;;;15.18;;
22922;SDS011;11627;51.322;22.816;2023-01-09T01:10:17;25.65;;;13.93;;
22922;SDS011;11627;51.322;22.816;2023-01-09T01:12:44;28.48;;;13.93;;
22922;SDS011;11627;51.322;22.816;2023-01-09T01:15:12;28.83;;;14.52;;
22922;SDS011;11627;51.322;22.816;2023-01-09T01:17:39;26.38;;;13.40;;
22922;SDS011;11627;51.322;22.816;2023-01-09T01:20:07;31.50;;;14.25;;
22922;SDS011;11627;51.322;22.816;2023-01-09T01:22:36;27.50;;;14.07;;
22922;SDS011;11627;51.322;22.816;2023-01-09T01:25:03;26.98;;;14.20;;
22922;SDS011;11627;51.322;22.816;2023-01-09T01:27:30;28.13;;;13.93;;
22922;SDS011;11627;51.322;22.816;2023-01-09T01:29:57;27.00;;;13.68;;
22922;SDS011;11627;51.322;22.816;2023-01-09T01:32:23;26.17;;;13.25;;
22922;SDS011;11627;51.322;22.816;2023-01-09T01:34:49;26.88;;;13.57;;
22922;SDS011;11627;51.322;22.816;2023-01-09T01:37:16;29.55;;;14.38;;
22922;SDS011;11627;51.322;22.816;2023-01-09T01:39:42;24.58;;;12.70;;
22922;SDS011;11627;51.322;22.816;2023-01-09T01:42:11;27.13;;;13.18;;
22922;SDS011;11627;51.322;22.816;2023-01-09T01:44:57;28.00;;;13.52;;
22922;SDS011;11627;51.322;22.816;2023-01-09T01:50:30;25.40;;;13.10;;
22922;SDS011;11627;51.322;22.816;2023-01-09T01:53:23;23.90;;;12.75;;
22922;SDS011;11627;51.322;22.816;2023-01-09T01:56:03;24.63;;;12.75;;
22922;SDS011;11627;51.322;22.816;2023-01-09T01:58:36;18.42;;;11.70;;
22922;SDS011;11627;51.322;22.816;2023-01-09T02:01:08;22.42;;;12.00;;
22922;SDS011;11627;51.322;22.816;2023-01-09T02:03:35;22.65;;;12.45;;
22922;SDS011;11627;51.322;22.816;2023-01-09T02:06:03;24.33;;;12.50;;
22922;SDS011;11627;51.322;22.816;2023-01-09T02:08:31;24.63;;;12.95;;
22922;SDS011;11627;51.322;22.816;2023-01-09T02:10:57;23.38;;;12.52;;
22922;SDS011;11627;51.322;22.816;2023-01-09T02:13:23;23.83;;;12.25;;
22922;SDS011;11627;51.322;22.816;2023-01-09T02:21:14;21.58;;;11.40;;
22922;SDS011;11627;51.322;22.816;2023-01-09T02:29:45;22.33;;;12.48;;
22922;SDS011;11627;51.322;22.816;2023-01-09T02:32:44;21.13;;;12.27;;
22922;SDS011;11627;51.322;22.816;2023-01-09T02:35:26;22.92;;;11.15;;
22922;SDS011;11627;51.322;22.816;2023-01-09T02:37:57;24.08;;;12.52;;
22922;SDS011;11627;51.322;22.816;2023-01-09T02:43:44;20.40;;;11.57;;
22922;SDS011;11627;51.322;22.816;2023-01-09T02:46:17;22.95;;;11.50;;
22922;SDS011;11627;51.322;22.816;2023-01-09T02:48:45;22.05;;;11.68;;
22922;SDS011;11627;51.322;22.816;2023-01-09T02:51:19;23.52;;;12.55;;
22922;SDS011;11627;51.322;22.816;2023-01-09T02:53:57;24.83;;;12.02;;
22922;SDS011;11627;51.322;22.816;2023-01-09T03:07:57;19.58;;;11.38;;
22922;SDS011;11627;51.322;22.816;2023-01-09T03:10:31;22.17;;;12.02;;
22922;SDS011;11627;51.322;22.816;2023-01-09T03:13:05;23.08;;;11.00;;
22922;SDS011;11627;51.322;22.816;2023-01-09T03:15:37;19.33;;;11.35;;
22922;SDS011;11627;51.322;22.816;2023-01-09T03:18:06;22.10;;;11.65;;
22922;SDS011;11627;51.322;22.816;2023-01-09T03:20:34;19.98;;;10.90;;
22922;SDS011;11627;51.322;22.816;2023-01-09T03:23:04;23.20;;;11.93;;
22922;SDS011;11627;51.322;22.816;2023-01-09T03:25:31;23.02;;;11.38;;
22922;SDS011;11627;51.322;22.816;2023-01-09T03:28:02;19.40;;;10.65;;
22922;SDS011;11627;51.322;22.816;2023-01-09T03:30:30;20.38;;;11.05;;
22922;SDS011;11627;51.322;22.816;2023-01-09T03:32:58;20.63;;;10.95;;
22922;SDS011;11627;51.322;22.816;2023-01-09T03:35:24;20.30;;;11.55;;
22922;SDS011;11627;51.322;22.816;2023-01-09T03:37:51;18.33;;;10.55;;
22922;SDS011;11627;51.322;22.816;2023-01-09T03:40:17;22.98;;;11.45;;
22922;SDS011;11627;51.322;22.816;2023-01-09T03:42:43;20.80;;;10.60;;
22922;SDS011;11627;51.322;22.816;2023-01-09T03:45:09;17.35;;;9.95;;
22922;SDS011;11627;51.322;22.816;2023-01-09T03:47:35;19.02;;;10.15;;
22922;SDS011;11627;51.322;22.816;2023-01-09T03:50:01;20.90;;;10.10;;
22922;SDS011;11627;51.322;22.816;2023-01-09T03:52:26;18.05;;;10.15;;
22922;SDS011;11627;51.322;22.816;2023-01-09T03:54:52;18.38;;;10.23;;
22922;SDS011;11627;51.322;22.816;2023-01-09T03:57:18;20.02;;;9.95;;
22922;SDS011;11627;51.322;22.816;2023-01-09T03:59:44;18.95;;;10.57;;
22922;SDS011;11627;51.322;22.816;2023-01-09T04:02:11;18.58;;;10.35;;
22922;SDS011;11627;51.322;22.816;2023-01-09T04:04:38;18.55;;;10.73;;
22922;SDS011;11627;51.322;22.816;2023-01-09T04:07:04;19.08;;;10.68;;
22922;SDS011;11627;51.322;22.816;2023-01-09T04:09:29;17.08;;;9.70;;
22922;SDS011;11627;51.322;22.816;2023-01-09T04:11:55;18.23;;;9.85;;
22922;SDS011;11627;51.322;22.816;2023-01-09T04:14:21;17.05;;;10.25;;
22922;SDS011;11627;51.322;22.816;2023-01-09T04:16:46;19.08;;;10.40;;
22922;SDS011;11627;51.322;22.816;2023-01-09T04:19:12;19.55;;;9.88;;
22922;SDS011;11627;51.322;22.816;2023-01-09T04:21:37;19.38;;;10.57;;
22922;SDS011;11627;51.322;22.816;2023-01-09T04:24:03;19.25;;;10.05;;
22922;SDS011;11627;51.322;22.816;2023-01-09T04:26:29;17.33;;;9.93;;
22922;SDS011;11627;51.322;22.816;2023-01-09T04:28:55;20.30;;;10.50;;
22922;SDS011;11627;51.322;22.816;2023-01-09T04:31:22;19.40;;;10.07;;
22922;SDS011;11627;51.322;22.816;2023-01-09T04:33:47;20.30;;;10.75;;
22922;SDS011;11627;51.322;22.816;2023-01-09T04:36:14;19.65;;;10.02;;
22922;SDS011;11627;51.322;22.816;2023-01-09T04:38:41;21.30;;;11.30;;
22922;SDS011;11627;51.322;22.816;2023-01-09T04:41:08;20.45;;;10.80;;
22922;SDS011;11627;51.322;22.816;2023-01-09T04:43:33;21.67;;;11.50;;
22922;SDS011;11627;51.322;22.816;2023-01-09T04:45:59;22.98;;;11.00;;
22922;SDS011;11627;51.322;22.816;2023-01-09T04:48:26;24.98;;;11.50;;
22922;SDS011;11627;51.322;22.816;2023-01-09T04:50:52;20.02;;;11.63;;
22922;SDS011;11627;51.322;22.816;2023-01-09T04:53:17;19.17;;;10.85;;
22922;SDS011;11627;51.322;22.816;2023-01-09T04:55:43;21.48;;;11.80;;
22922;SDS011;11627;51.322;22.816;2023-01-09T04:58:09;23.02;;;11.52;;
22922;SDS011;11627;51.322;22.816;2023-01-09T05:00:35;24.90;;;12.55;;
22922;SDS011;11627;51.322;22.816;2023-01-09T05:03:00;31.85;;;14.05;;
22922;SDS011;11627;51.322;22.816;2023-01-09T05:05:26;39.63;;;14.93;;
22922;SDS011;11627;51.322;22.816;2023-01-09T05:07:52;69.05;;;18.25;;
22922;SDS011;11627;51.322;22.816;2023-01-09T05:10:18;79.72;;;22.67;;
22922;SDS011;11627;51.322;22.816;2023-01-09T05:12:44;80.07;;;21.77;;
22922;SDS011;11627;51.322;22.816;2023-01-09T05:15:10;68.38;;;22.35;;
22922;SDS011;11627;51.322;22.816;2023-01-09T05:17:36;57.08;;;19.50;;
22922;SDS011;11627;51.322;22.816;2023-01-09T05:20:02;44.55;;;16.00;;
22922;SDS011;11627;51.322;22.816;2023-01-09T05:22:28;35.90;;;15.50;;
22922;SDS011;11627;51.322;22.816;2023-01-09T05:24:54;36.78;;;14.82;;
22922;SDS011;11627;51.322;22.816;2023-01-09T05:27:20;23.80;;;12.50;;
22922;SDS011;11627;51.322;22.816;2023-01-09T05:29:46;22.85;;;12.35;;
22922;SDS011;11627;51.322;22.816;2023-01-09T05:32:11;21.23;;;11.85;;
22922;SDS011;11627;51.322;22.816;2023-01-09T05:34:37;22.00;;;11.73;;
22922;SDS011;11627;51.322;22.816;2023-01-09T05:37:04;24.02;;;11.38;;
22922;SDS011;11627;51.322;22.816;2023-01-09T05:39:29;23.67;;;11.68;;
22922;SDS011;11627;51.322;22.816;2023-01-09T05:41:56;24.88;;;12.85;;
22922;SDS011;11627;51.322;22.816;2023-01-09T05:44:22;26.98;;;13.20;;
22922;SDS011;11627;51.322;22.816;2023-01-09T05:46:47;27.33;;;12.55;;
22922;SDS011;11627;51.322;22.816;2023-01-09T05:49:16;29.45;;;12.82;;
22922;SDS011;11627;51.322;22.816;2023-01-09T05:51:44;28.13;;;13.93;;
22922;SDS011;11627;51.322;22.816;2023-01-09T05:54:11;42.35;;;18.55;;
22922;SDS011;11627;51.322;22.816;2023-01-09T05:56:36;59.88;;;21.40;;
22922;SDS011;11627;51.322;22.816;2023-01-09T05:59:03;48.78;;;18.90;;
22922;SDS011;11627;51.322;22.816;2023-01-09T06:01:28;29.95;;;15.00;;
22922;SDS011;11627;51.322;22.816;2023-01-09T06:03:55;25.65;;;14.07;;
22922;SDS011;11627;51.322;22.816;2023-01-09T06:06:22;24.65;;;13.70;;
22922;SDS011;11627;51.322;22.816;2023-01-09T06:08:49;26.38;;;14.02;;
22922;SDS011;11627;51.322;22.816;2023-01-09T06:11:15;23.65;;;13.15;;
22922;SDS011;11627;51.322;22.816;2023-01-09T06:13:40;32.47;;;18.73;;
22922;SDS011;11627;51.322;22.816;2023-01-09T06:16:06;26.42;;;14.85;;
22922;SDS011;11627;51.322;22.816;2023-01-09T06:18:33;25.70;;;13.73;;
22922;SDS011;11627;51.322;22.816;2023-01-09T06:20:59;26.10;;;13.80;;
22922;SDS011;11627;51.322;22.816;2023-01-09T06:23:26;22.83;;;12.15;;
22922;SDS011;11627;51.322;22.816;2023-01-09T06:25:55;23.15;;;12.88;;
22922;SDS011;11627;51.322;22.816;2023-01-09T06:28:22;22.42;;;12.93;;
22922;SDS011;11627;51.322;22.816;2023-01-09T06:30:51;24.77;;;12.15;;
22922;SDS011;11627;51.322;22.816;2023-01-09T06:33:17;19.20;;;11.32;;
22922;SDS011;11627;51.322;22.816;2023-01-09T06:35:43;25.20;;;11.88;;
22922;SDS011;11627;51.322;22.816;2023-01-09T06:38:09;23.60;;;11.70;;
22922;SDS011;11627;51.322;22.816;2023-01-09T06:40:34;23.95;;;12.48;;
22922;SDS011;11627;51.322;22.816;2023-01-09T06:43:00;27.10;;;12.82;;
22922;SDS011;11627;51.322;22.816;2023-01-09T06:45:25;23.13;;;12.50;;
22922;SDS011;11627;51.322;22.816;2023-01-09T06:47:53;23.88;;;12.48;;
22922;SDS011;11627;51.322;22.816;2023-01-09T06:50:18;28.98;;;12.43;;
22922;SDS011;11627;51.322;22.816;2023-01-09T06:52:45;25.85;;;12.95;;
22922;SDS011;11627;51.322;22.816;2023-01-09T06:55:11;25.73;;;12.75;;
22922;SDS011;11627;51.322;22.816;2023-01-09T06:57:37;20.85;;;11.63;;
22922;SDS011;11627;51.322;22.816;2023-01-09T07:00:08;23.13;;;12.38;;
22922;SDS011;11627;51.322;22.816;2023-01-09T07:02:34;20.90;;;11.73;;
22922;SDS011;11627;51.322;22.816;2023-01-09T07:04:59;28.48;;;12.23;;
22922;SDS011;11627;51.322;22.816;2023-01-09T07:07:27;21.85;;;12.02;;
22922;SDS011;11627;51.322;22.816;2023-01-09T07:09:52;24.23;;;11.32;;
22922;SDS011;11627;51.322;22.816;2023-01-09T07:12:18;21.60;;;12.02;;
22922;SDS011;11627;51.322;22.816;2023-01-09T07:14:45;23.42;;;11.85;;
22922;SDS011;11627;51.322;22.816;2023-01-09T07:17:11;21.48;;;12.20;;
22922;SDS011;11627;51.322;22.816;2023-01-09T07:19:38;21.15;;;11.75;;
22922;SDS011;11627;51.322;22.816;2023-01-09T07:22:04;24.05;;;12.88;;
22922;SDS011;11627;51.322;22.816;2023-01-09T07:24:32;25.75;;;13.00;;
22922;SDS011;11627;51.322;22.816;2023-01-09T07:27:00;24.92;;;12.27;;
22922;SDS011;11627;51.322;22.816;2023-01-09T07:29:28;25.98;;;13.25;;
22922;SDS011;11627;51.322;22.816;2023-01-09T07:31:54;25.23;;;12.10;;
22922;SDS011;11627;51.322;22.816;2023-01-09T07:34:20;26.00;;;11.90;;
22922;SDS011;11627;51.322;22.816;2023-01-09T07:36:46;22.40;;;12.23;;
22922;SDS011;11627;51.322;22.816;2023-01-09T07:39:13;23.83;;;11.63;;
22922;SDS011;11627;51.322;22.816;2023-01-09T07:41:38;21.75;;;11.93;;
22922;SDS011;11627;51.322;22.816;2023-01-09T07:44:05;27.02;;;12.55;;
22922;SDS011;11627;51.322;22.816;2023-01-09T07:46:31;23.02;;;12.27;;
22922;SDS011;11627;51.322;22.816;2023-01-09T07:48:57;22.50;;;12.35;;
22922;SDS011;11627;51.322;22.816;2023-01-09T07:51:23;24.80;;;12.35;;
22922;SDS011;11627;51.322;22.816;2023-01-09T07:53:50;24.75;;;12.93;;
22922;SDS011;11627;51.322;22.816;2023-01-09T07:56:17;26.00;;;13.25;;
22922;SDS011;11627;51.322;22.816;2023-01-09T07:58:43;28.30;;;13.13;;
22922;SDS011;11627;51.322;22.816;2023-01-09T08:01:09;25.48;;;12.05;;
22922;SDS011;11627;51.322;22.816;2023-01-09T08:03:34;25.00;;;12.73;;
22922;SDS011;11627;51.322;22.816;2023-01-09T08:06:02;23.73;;;11.20;;
22922;SDS011;11627;51.322;22.816;2023-01-09T08:08:27;23.73;;;12.23;;
22922;SDS011;11627;51.322;22.816;2023-01-09T08:10:53;21.80;;;11.45;;
22922;SDS011;11627;51.322;22.816;2023-01-09T08:13:19;22.92;;;11.93;;
22922;SDS011;11627;51.322;22.816;2023-01-09T08:15:45;24.70;;;12.38;;
22922;SDS011;11627;51.322;22.816;2023-01-09T08:18:10;22.02;;;11.88;;
22922;SDS011;11627;51.322;22.816;2023-01-09T08:20:36;21.40;;;11.95;;
22922;SDS011;11627;51.322;22.816;2023-01-09T08:23:03;21.75;;;11.90;;
22922;SDS011;11627;51.322;22.816;2023-01-09T08:25:30;18.45;;;11.45;;
22922;SDS011;11627;51.322;22.816;2023-01-09T08:27:56;24.08;;;12.50;;
22922;SDS011;11627;51.322;22.816;2023-01-09T08:30:23;19.77;;;11.05;;
22922;SDS011;11627;51.322;22.816;2023-01-09T08:32:52;21.27;;;11.95;;
22922;SDS011;11627;51.322;22.816;2023-01-09T08:35:18;23.70;;;11.30;;
22922;SDS011;11627;51.322;22.816;2023-01-09T08:37:45;24.27;;;11.23;;
22922;SDS011;11627;51.322;22.816;2023-01-09T08:40:12;23.27;;;12.02;;
22922;SDS011;11627;51.322;22.816;2023-01-09T08:42:39;24.85;;;13.10;;
22922;SDS011;11627;51.322;22.816;2023-01-09T08:45:24;23.80;;;12.88;;
22922;SDS011;11627;51.322;22.816;2023-01-09T08:48:08;26.77;;;12.98;;
22922;SDS011;11627;51.322;22.816;2023-01-09T08:50:34;24.63;;;13.57;;
22922;SDS011;11627;51.322;22.816;2023-01-09T08:53:01;24.15;;;12.75;;
22922;SDS011;11627;51.322;22.816;2023-01-09T08:55:27;24.80;;;12.88;;
22922;SDS011;11627;51.322;22.816;2023-01-09T08:57:53;24.48;;;13.55;;
22922;SDS011;11627;51.322;22.816;2023-01-09T09:00:20;26.55;;;13.45;;
22922;SDS011;11627;51.322;22.816;2023-01-09T09:02:54;26.83;;;12.98;;
22922;SDS011;11627;51.322;22.816;2023-01-09T09:05:23;26.23;;;12.80;;
22922;SDS011;11627;51.322;22.816;2023-01-09T09:07:51;24.35;;;12.77;;
22922;SDS011;11627;51.322;22.816;2023-01-09T09:10:21;25.75;;;12.77;;
22922;SDS011;11627;51.322;22.816;2023-01-09T09:12:49;25.67;;;13.95;;
22922;SDS011;11627;51.322;22.816;2023-01-09T09:15:16;26.80;;;13.55;;
22922;SDS011;11627;51.322;22.816;2023-01-09T09:17:52;24.33;;;12.82;;
22922;SDS011;11627;51.322;22.816;2023-01-09T09:20:19;27.95;;;13.35;;
22922;SDS011;11627;51.322;22.816;2023-01-09T09:22:49;28.88;;;14.18;;
22922;SDS011;11627;51.322;22.816;2023-01-09T09:25:15;31.45;;;14.18;;
22922;SDS011;11627;51.322;22.816;2023-01-09T09:27:42;25.13;;;13.32;;
22922;SDS011;11627;51.322;22.816;2023-01-09T09:30:09;32.13;;;15.23;;
22922;SDS011;11627;51.322;22.816;2023-01-09T09:32:37;27.00;;;13.88;;
22922;SDS011;11627;51.322;22.816;2023-01-09T09:35:03;28.60;;;14.27;;
22922;SDS011;11627;51.322;22.816;2023-01-09T09:37:30;28.20;;;14.48;;
22922;SDS011;11627;51.322;22.816;2023-01-09T09:39:56;29.48;;;14.45;;
22922;SDS011;11627;51.322;22.816;2023-01-09T09:53:46;26.95;;;13.80;;
22922;SDS011;11627;51.322;22.816;2023-01-09T09:56:13;29.10;;;14.10;;
22922;SDS011;11627;51.322;22.816;2023-01-09T09:58:43;29.58;;;14.48;;
22922;SDS011;11627;51.322;22.816;2023-01-09T10:01:14;27.70;;;14.25;;
22922;SDS011;11627;51.322;22.816;2023-01-09T10:03:49;28.10;;;13.68;;
22922;SDS011;11627;51.322;22.816;2023-01-09T10:06:29;24.60;;;13.32;;
22922;SDS011;11627;51.322;22.816;2023-01-09T10:09:05;24.35;;;13.38;;
22922;SDS011;11627;51.322;22.816;2023-01-09T10:15:05;21.33;;;12.55;;
22922;SDS011;11627;51.322;22.816;2023-01-09T10:18:02;24.20;;;12.45;;
22922;SDS011;11627;51.322;22.816;2023-01-09T10:23:43;23.80;;;12.75;;
22922;SDS011;11627;51.322;22.816;2023-01-09T10:26:20;26.52;;;13.48;;
22922;SDS011;11627;51.322;22.816;2023-01-09T10:37:41;35.88;;;20.33;;
22922;SDS011;11627;51.322;22.816;2023-01-09T10:40:18;33.13;;;18.77;;
22922;SDS011;11627;51.322;22.816;2023-01-09T10:42:49;37.17;;;22.77;;
22922;SDS011;11627;51.322;22.816;2023-01-09T10:45:40;41.83;;;23.33;;
22922;SDS011;11627;51.322;22.816;2023-01-09T10:48:19;40.63;;;22.25;;
22922;SDS011;11627;51.322;22.816;2023-01-09T10:53:58;36.80;;;20.48;;
22922;SDS011;11627;51.322;22.816;2023-01-09T10:56:26;45.75;;;24.92;;
22922;SDS011;11627;51.322;22.816;2023-01-09T10:58:56;35.80;;;20.45;;
22922;SDS011;11627;51.322;22.816;2023-01-09T11:01:31;42.20;;;26.35;;
22922;SDS011;11627;51.322;22.816;2023-01-09T11:04:25;34.65;;;19.30;;
22922;SDS011;11627;51.322;22.816;2023-01-09T11:07:33;34.35;;;18.42;;
22922;SDS011;11627;51.322;22.816;2023-01-09T11:12:32;35.85;;;17.40;;
22922;SDS011;11627;51.322;22.816;2023-01-09T11:17:41;37.90;;;24.00;;
22922;SDS011;11627;51.322;22.816;2023-01-09T11:20:15;30.50;;;17.80;;
22922;SDS011;11627;51.322;22.816;2023-01-09T11:22:49;31.38;;;17.55;;
22922;SDS011;11627;51.322;22.816;2023-01-09T11:25:18;36.03;;;18.95;;
22922;SDS011;11627;51.322;22.816;2023-01-09T11:30:33;28.77;;;16.45;;
22922;SDS011;11627;51.322;22.816;2023-01-09T11:33:28;29.20;;;15.68;;
22922;SDS011;11627;51.322;22.816;2023-01-09T11:38:29;26.10;;;15.10;;
22922;SDS011;11627;51.322;22.816;2023-01-09T11:41:00;28.83;;;15.10;;
22922;SDS011;11627;51.322;22.816;2023-01-09T11:43:36;27.30;;;14.27;;
22922;SDS011;11627;51.322;22.816;2023-01-09T11:46:04;28.52;;;14.98;;
22922;SDS011;11627;51.322;22.816;2023-01-09T11:48:34;27.00;;;14.70;;
22922;SDS011;11627;51.322;22.816;2023-01-09T11:51:19;24.85;;;15.05;;
22922;SDS011;11627;51.322;22.816;2023-01-09T11:56:36;25.90;;;14.65;;
22922;SDS011;11627;51.322;22.816;2023-01-09T11:59:17;25.13;;;14.90;;
22922;SDS011;11627;51.322;22.816;2023-01-09T12:04:26;26.73;;;14.02;;
22922;SDS011;11627;51.322;22.816;2023-01-09T12:28:54;30.70;;;15.38;;
22922;SDS011;11627;51.322;22.816;2023-01-09T12:34:55;29.70;;;16.30;;
22922;SDS011;11627;51.322;22.816;2023-01-09T12:37:47;30.52;;;15.30;;
22922;SDS011;11627;51.322;22.816;2023-01-09T12:40:36;33.83;;;15.95;;
22922;SDS011;11627;51.322;22.816;2023-01-09T12:51:43;29.27;;;14.73;;
22922;SDS011;11627;51.322;22.816;2023-01-09T12:57:30;24.60;;;13.63;;
22922;SDS011;11627;51.322;22.816;2023-01-09T13:03:11;25.10;;;14.70;;
22922;SDS011;11627;51.322;22.816;2023-01-09T13:05:49;22.67;;;12.05;;
22922;SDS011;11627;51.322;22.816;2023-01-09T13:11:17;18.63;;;11.43;;
22922;SDS011;11627;51.322;22.816;2023-01-09T13:17:14;22.75;;;13.30;;
22922;SDS011;11627;51.322;22.816;2023-01-09T13:19:46;34.10;;;18.35;;
22922;SDS011;11627;51.322;22.816;2023-01-09T13:22:12;46.75;;;22.55;;
22922;SDS011;11627;51.322;22.816;2023-01-09T13:27:42;39.92;;;20.65;;
22922;SDS011;11627;51.322;22.816;2023-01-09T13:30:24;36.75;;;20.63;;
22922;SDS011;11627;51.322;22.816;2023-01-09T13:35:55;24.77;;;15.18;;
22922;SDS011;11627;51.322;22.816;2023-01-09T13:38:22;18.88;;;12.13;;
22922;SDS011;11627;51.322;22.816;2023-01-09T13:41:11;17.92;;;10.98;;
22922;SDS011;11627;51.322;22.816;2023-01-09T13:44:00;20.98;;;12.13;;
22922;SDS011;11627;51.322;22.816;2023-01-09T13:46:36;17.25;;;12.02;;
22922;SDS011;11627;51.322;22.816;2023-01-09T13:57:34;13.77;;;9.38;;
22922;SDS011;11627;51.322;22.816;2023-01-09T14:07:45;18.63;;;10.65;;
22922;SDS011;11627;51.322;22.816;2023-01-09T14:10:21;20.23;;;11.25;;
22922;SDS011;11627;51.322;22.816;2023-01-09T14:12:51;19.88;;;11.98;;
22922;SDS011;11627;51.322;22.816;2023-01-09T14:15:42;21.27;;;12.75;;
22922;SDS011;11627;51.322;22.816;2023-01-09T14:18:17;20.85;;;12.82;;
22922;SDS011;11627;51.322;22.816;2023-01-09T14:23:33;23.38;;;12.57;;
22922;SDS011;11627;51.322;22.816;2023-01-09T14:26:01;23.92;;;12.85;;
22922;SDS011;11627;51.322;22.816;2023-01-09T14:28:31;29.60;;;15.63;;
22922;SDS011;11627;51.322;22.816;2023-01-09T14:36:13;23.33;;;12.50;;
22922;SDS011;11627;51.322;22.816;2023-01-09T14:47:27;17.20;;;9.57;;
22922;SDS011;11627;51.322;22.816;2023-01-09T14:50:06;17.50;;;10.00;;
22922;SDS011;11627;51.322;22.816;2023-01-09T14:52:36;15.02;;;9.05;;
22922;SDS011;11627;51.322;22.816;2023-01-09T14:56:18;14.52;;;8.40;;
22922;SDS011;11627;51.322;22.816;2023-01-09T14:58:40;14.50;;;8.60;;
22922;SDS011;11627;51.322;22.816;2023-01-09T15:03:52;12.85;;;7.68;;
22922;SDS011;11627;51.322;22.816;2023-01-09T15:06:36;12.52;;;7.60;;
22922;SDS011;11627;51.322;22.816;2023-01-09T15:11:56;16.50;;;8.57;;
22922;SDS011;11627;51.322;22.816;2023-01-09T15:16:59;16.75;;;9.00;;
22922;SDS011;11627;51.322;22.816;2023-01-09T15:19:27;16.60;;;9.18;;
22922;SDS011;11627;51.322;22.816;2023-01-09T15:21:59;18.73;;;9.02;;
22922;SDS011;11627;51.322;22.816;2023-01-09T15:24:34;17.95;;;9.45;;
22922;SDS011;11627;51.322;22.816;2023-01-09T15:27:01;16.80;;;9.18;;
22922;SDS011;11627;51.322;22.816;2023-01-09T15:29:34;17.48;;;10.40;;
22922;SDS011;11627;51.322;22.816;2023-01-09T15:34:44;23.08;;;11.90;;
22922;SDS011;11627;51.322;22.816;2023-01-09T15:37:25;28.08;;;12.05;;
22922;SDS011;11627;51.322;22.816;2023-01-09T15:39:58;24.55;;;12.02;;
22922;SDS011;11627;51.322;22.816;2023-01-09T15:42:27;27.10;;;11.98;;
22922;SDS011;11627;51.322;22.816;2023-01-09T15:50:49;20.25;;;11.05;;
22922;SDS011;11627;51.322;22.816;2023-01-09T15:53:27;23.00;;;13.82;;
22922;SDS011;11627;51.322;22.816;2023-01-09T15:58:46;20.50;;;11.30;;
22922;SDS011;11627;51.322;22.816;2023-01-09T16:51:32;36.13;;;16.83;;
22922;SDS011;11627;51.322;22.816;2023-01-09T16:53:57;36.63;;;18.27;;
22922;SDS011;11627;51.322;22.816;2023-01-09T16:56:24;46.20;;;20.70;;
22922;SDS011;11627;51.322;22.816;2023-01-09T16:58:52;59.35;;;23.42;;
22922;SDS011;11627;51.322;22.816;2023-01-09T17:01:19;62.42;;;22.48;;
22922;SDS011;11627;51.322;22.816;2023-01-09T17:03:45;64.40;;;22.08;;
22922;SDS011;11627;51.322;22.816;2023-01-09T17:06:14;115.72;;;32.25;;
22922;SDS011;11627;51.322;22.816;2023-01-09T17:08:55;104.50;;;30.00;;
22922;SDS011;11627;51.322;22.816;2023-01-09T17:11:23;62.83;;;23.00;;
22922;SDS011;11627;51.322;22.816;2023-01-09T17:13:57;54.55;;;19.98;;
22922;SDS011;11627;51.322;22.816;2023-01-09T17:16:23;72.93;;;23.88;;
22922;SDS011;11627;51.322;22.816;2023-01-09T17:18:49;74.03;;;24.60;;
22922;SDS011;11627;51.322;22.816;2023-01-09T17:21:18;68.30;;;25.30;;
22922;SDS011;11627;51.322;22.816;2023-01-09T17:23:46;79.30;;;31.08;;
22922;SDS011;11627;51.322;22.816;2023-01-09T17:26:32;68.32;;;27.90;;
22922;SDS011;11627;51.322;22.816;2023-01-09T17:29:17;50.75;;;22.27;;
22922;SDS011;11627;51.322;22.816;2023-01-09T17:31:42;46.28;;;19.85;;
22922;SDS011;11627;51.322;22.816;2023-01-09T17:34:09;47.72;;;19.33;;
22922;SDS011;11627;51.322;22.816;2023-01-09T17:36:35;48.00;;;21.52;;
22922;SDS011;11627;51.322;22.816;2023-01-09T17:39:01;52.17;;;19.38;;
22922;SDS011;11627;51.322;22.816;2023-01-09T17:41:29;47.92;;;19.05;;
22922;SDS011;11627;51.322;22.816;2023-01-09T17:43:55;45.42;;;18.67;;
22922;SDS011;11627;51.322;22.816;2023-01-09T17:46:26;50.38;;;19.00;;
22922;SDS011;11627;51.322;22.816;2023-01-09T17:48:55;55.78;;;22.20;;
22922;SDS011;11627;51.322;22.816;2023-01-09T17:51:22;58.17;;;23.67;;
22922;SDS011;11627;51.322;22.816;2023-01-09T17:53:48;54.83;;;22.52;;
22922;SDS011;11627;51.322;22.816;2023-01-09T17:56:15;63.35;;;27.13;;
22922;SDS011;11627;51.322;22.816;2023-01-09T17:59:05;119.18;;;47.30;;
22922;SDS011;11627;51.322;22.816;2023-01-09T18:01:35;110.45;;;41.70;;
22922;SDS011;11627;51.322;22.816;2023-01-09T18:04:02;78.15;;;27.85;;
22922;SDS011;11627;51.322;22.816;2023-01-09T18:06:28;74.50;;;27.40;;
22922;SDS011;11627;51.322;22.816;2023-01-09T18:08:53;65.97;;;26.08;;
22922;SDS011;11627;51.322;22.816;2023-01-09T18:11:19;65.72;;;24.85;;
22922;SDS011;11627;51.322;22.816;2023-01-09T18:13:46;53.83;;;23.40;;